createdAt,value
2022-10-05T00:16:43.839Z,100.00
2022-10-05T00:19:37.338Z,100.00
2022-10-05T01:00:34.477Z,100.00
2022-10-05T01:42:18.187Z,100.00
2022-10-05T01:56:14.617Z,100.00
2022-10-05T02:06:21.029Z,100.00
2022-10-05T02:19:34.642Z,100.00
2022-10-05T02:25:46.775Z,100.00
2022-10-05T02:42:06.776Z,100.00
2022-10-05T02:45:29.651Z,100.00
2022-10-05T03:05:36.264Z,100.00
2022-10-05T03:22:50.387Z,100.00
2022-10-05T03:26:22.744Z,100.00
2022-10-05T03:52:31.682Z,100.00
2022-10-05T03:59:32.277Z,100.00
2022-10-05T04:43:35.638Z,100.00
2022-10-05T06:10:07.343Z,100.00
2022-10-05T06:12:48.374Z,100.00
2022-10-05T06:15:44.791Z,98.56
2022-10-05T06:18:20.158Z,98.43
2022-10-05T06:21:03.522Z,96.45
2022-10-05T06:24:14.956Z,97.28
2022-10-05T06:27:10.254Z,96.16
2022-10-05T06:30:02.687Z,94.93
2022-10-05T06:32:51.096Z,93.03
2022-10-05T06:35:57.063Z,92.72
2022-10-05T06:39:00.045Z,94.16
2022-10-05T06:42:05.873Z,89.26
2022-10-05T06:45:20.635Z,87.53
2022-10-05T06:48:28.485Z,88.39
2022-10-05T06:51:20.487Z,86.48
2022-10-05T06:54:08.692Z,87.03
2022-10-05T07:00:34.405Z,83.82
2022-10-05T07:03:42.111Z,82.37
2022-10-05T07:13:47.501Z,78.13
2022-10-05T07:16:47.158Z,83.04
2022-10-05T07:20:05.085Z,80.90
2022-10-05T07:23:42.615Z,81.04
2022-10-05T07:26:53.622Z,82.13
2022-10-05T07:29:40.106Z,82.23
2022-10-05T07:33:00.403Z,81.07
2022-10-05T07:36:24.601Z,78.70
2022-10-05T07:39:36.720Z,80.34
2022-10-05T07:43:04.010Z,79.29
2022-10-05T07:45:54.012Z,78.27
2022-10-05T07:48:51.390Z,76.87
2022-10-05T07:52:04.346Z,75.51
2022-10-05T08:01:42.912Z,76.12
2022-10-05T08:04:26.128Z,76.77
2022-10-05T08:07:03.798Z,77.16
2022-10-05T08:10:00.691Z,76.50
2022-10-05T08:12:50.622Z,76.60
2022-10-05T08:15:34.540Z,77.26
2022-10-05T08:18:17.795Z,76.76
2022-10-05T08:21:12.843Z,76.82
2022-10-05T08:23:59.360Z,78.41
2022-10-05T08:27:02.842Z,76.63
2022-10-05T08:30:01.875Z,77.46
2022-10-05T08:32:41.439Z,77.09
2022-10-05T08:36:01.600Z,79.31
2022-10-05T08:38:34.808Z,80.28
2022-10-05T08:41:33.852Z,80.08
2022-10-05T08:44:41.589Z,81.44
2022-10-05T08:47:22.048Z,83.28
2022-10-05T08:50:47.531Z,81.19
2022-10-05T08:54:05.995Z,84.10
2022-10-05T08:57:06.807Z,82.07
2022-10-05T09:00:19.192Z,80.65
2022-10-05T09:03:26.150Z,80.50
2022-10-05T09:06:18.190Z,83.06
2022-10-05T09:09:05.680Z,83.28
2022-10-05T09:11:59.710Z,81.90
2022-10-05T09:14:42.551Z,75.15
2022-10-05T09:17:51.024Z,72.26
2022-10-05T09:21:16.468Z,75.53
2022-10-05T09:23:57.069Z,76.29
2022-10-05T09:26:44.779Z,75.24
2022-10-05T09:29:54.097Z,76.89
2022-10-05T09:33:02.899Z,77.28
2022-10-05T09:36:13.616Z,74.02
2022-10-05T09:39:19.720Z,76.95
2022-10-05T09:42:27.320Z,76.54
2022-10-05T09:45:21.838Z,72.52
2022-10-05T09:48:28.059Z,70.38
2022-10-05T09:51:05.535Z,70.74
2022-10-05T09:54:09.087Z,70.75
2022-10-05T09:57:18.750Z,70.54
2022-10-05T10:07:20.577Z,68.01
2022-10-05T10:10:40.494Z,70.39
2022-10-05T10:13:51.189Z,72.19
2022-10-05T10:16:55.577Z,74.41
2022-10-05T10:20:14.135Z,73.08
2022-10-05T10:23:08.205Z,73.29
2022-10-05T10:25:41.583Z,71.94
2022-10-05T10:28:22.117Z,71.26
2022-10-05T10:37:43.266Z,73.16
2022-10-05T10:40:42.479Z,72.47
2022-10-05T10:43:58.236Z,70.69
2022-10-05T10:50:10.621Z,71.55
2022-10-05T10:53:13.930Z,70.23
2022-10-05T10:56:30.362Z,67.04
2022-10-05T10:59:54.790Z,69.98
2022-10-05T11:02:33.613Z,70.79
2022-10-05T11:05:43.071Z,70.38
2022-10-05T11:08:57.407Z,70.81
2022-10-05T11:12:09.037Z,71.80
2022-10-05T11:14:56.870Z,71.99
2022-10-05T11:18:19.281Z,69.60
2022-10-05T11:21:24.803Z,68.49
2022-10-05T11:24:18.839Z,68.64
2022-10-05T11:26:59.922Z,67.12
2022-10-05T11:30:09.681Z,67.33
2022-10-05T11:33:20.185Z,64.44
2022-10-05T11:36:35.824Z,66.86
2022-10-05T11:39:25.742Z,65.45
2022-10-05T11:42:33.347Z,63.80
2022-10-05T11:45:25.437Z,62.22
2022-10-05T11:48:30.451Z,64.04
2022-10-05T11:51:33.221Z,65.39
2022-10-05T11:55:09.229Z,66.65
2022-10-05T11:57:49.943Z,66.60
2022-10-05T12:00:25.567Z,63.25
2022-10-05T12:03:27.472Z,64.02
2022-10-05T12:06:35.851Z,65.89
2022-10-05T12:09:40.925Z,65.68
2022-10-05T12:15:58.677Z,65.91
2022-10-05T12:18:40.014Z,65.36
2022-10-05T12:21:10.986Z,64.30
2022-10-05T12:24:17.336Z,63.46
2022-10-05T12:31:00.926Z,63.38
2022-10-05T12:33:50.714Z,64.84
2022-10-05T12:37:03.005Z,65.70
2022-10-05T12:39:55.266Z,66.59
2022-10-05T12:42:32.261Z,67.03
2022-10-05T12:45:28.785Z,66.57
2022-10-05T12:48:31.947Z,66.22
2022-10-05T12:51:19.249Z,65.03
2022-10-05T12:54:09.265Z,63.53
2022-10-05T12:57:02.927Z,61.99
2022-10-05T13:00:00.035Z,58.58
2022-10-05T13:02:59.295Z,53.95
2022-10-05T13:06:03.490Z,50.43
2022-10-05T13:09:00.538Z,47.72
2022-10-05T13:12:01.156Z,45.43
2022-10-05T13:15:07.959Z,44.58
2022-10-05T13:18:19.145Z,44.64
2022-10-05T13:21:18.267Z,43.15
2022-10-05T13:23:57.373Z,43.57
2022-10-05T13:26:38.696Z,44.33
2022-10-05T13:29:21.899Z,46.80
2022-10-05T13:32:14.293Z,49.77
2022-10-05T13:35:38.403Z,51.82
2022-10-05T13:38:26.204Z,49.99
2022-10-05T13:41:11.800Z,48.71
2022-10-05T13:44:02.452Z,45.96
2022-10-05T13:53:21.764Z,46.56
2022-10-05T14:03:38.717Z,46.96
2022-10-05T14:15:41.299Z,55.39
2022-10-05T14:18:32.120Z,55.36
2022-10-05T14:21:19.120Z,56.40
2022-10-05T14:24:42.320Z,57.47
2022-10-05T14:27:54.812Z,59.90
2022-10-05T14:30:26.910Z,58.32
2022-10-05T14:33:38.892Z,58.98
2022-10-05T14:36:23.689Z,59.73
2022-10-05T14:39:09.499Z,61.02
2022-10-05T14:41:48.290Z,62.46
2022-10-05T14:44:35.922Z,61.56
2022-10-05T14:47:28.562Z,62.86
2022-10-05T14:50:31.395Z,64.10
2022-10-05T14:53:20.375Z,63.33
2022-10-05T14:56:30.264Z,64.66
2022-10-05T14:59:33.909Z,69.92
2022-10-05T15:06:01.308Z,73.54
2022-10-05T15:08:50.059Z,70.56
2022-10-05T15:11:48.326Z,75.10
2022-10-05T15:14:48.348Z,75.39
2022-10-05T15:17:56.108Z,78.33
2022-10-05T15:21:29.445Z,79.23
2022-10-05T16:31:20.402Z,96.17
2022-10-05T16:41:12.385Z,96.99
2022-10-05T17:00:53.636Z,99.76
2022-10-05T17:04:17.355Z,98.61
2022-10-05T17:17:30.223Z,100.00
2022-10-05T17:34:35.660Z,99.57
2022-10-05T17:40:40.784Z,98.99
2022-10-05T17:43:33.389Z,98.09
2022-10-05T17:46:48.576Z,98.49
2022-10-05T17:49:41.217Z,99.73
2022-10-05T17:56:02.678Z,100.00
2022-10-05T17:58:49.558Z,100.00
2022-10-05T18:01:45.594Z,100.00
2022-10-05T18:07:44.421Z,100.00
2022-10-05T18:10:30.503Z,100.00
2022-10-05T18:14:02.505Z,100.00
2022-10-05T18:17:26.504Z,100.00
2022-10-05T18:20:32.057Z,100.00
2022-10-05T18:34:00.507Z,100.00
2022-10-05T18:43:57.435Z,100.00
2022-10-05T18:50:40.159Z,100.00
2022-10-05T18:53:38.475Z,100.00
2022-10-05T18:56:42.746Z,100.00
2022-10-05T18:59:44.753Z,100.00
2022-10-05T19:06:15.123Z,100.00
2022-10-05T19:09:02.170Z,100.00
2022-10-05T19:15:33.878Z,100.00
2022-10-05T19:19:07.451Z,100.00
2022-10-05T19:22:22.375Z,100.00
2022-10-05T19:25:38.189Z,100.00
2022-10-05T19:28:50.583Z,100.00
2022-10-05T19:31:54.873Z,100.00
2022-10-05T19:35:13.298Z,100.00
2022-10-05T19:38:32.079Z,100.00
2022-10-05T19:41:44.515Z,100.00
2022-10-05T19:48:04.878Z,100.00
2022-10-05T19:53:29.784Z,100.00
2022-10-05T19:56:31.610Z,100.00
2022-10-05T20:02:14.103Z,100.00
2022-10-05T20:05:10.752Z,100.00
2022-10-05T20:07:54.187Z,100.00
2022-10-05T20:13:36.305Z,100.00
2022-10-05T20:16:45.748Z,100.00
2022-10-05T20:23:00.168Z,100.00
2022-10-05T20:25:33.969Z,100.00
2022-10-05T20:28:35.917Z,100.00
2022-10-05T20:37:05.165Z,100.00
2022-10-05T20:42:24.046Z,100.00
2022-10-05T20:44:59.363Z,100.00
2022-10-05T20:47:32.449Z,100.00
2022-10-05T20:50:06.797Z,100.00
2022-10-05T20:52:39.734Z,100.00
2022-10-05T20:55:11.671Z,100.00
2022-10-05T20:57:48.307Z,100.00
2022-10-05T21:00:17.926Z,100.00
2022-10-05T21:02:49.584Z,100.00
2022-10-05T21:05:19.473Z,100.00
2022-10-05T21:07:48.774Z,100.00
2022-10-05T21:10:19.965Z,100.00
2022-10-05T21:12:49.687Z,100.00
2022-10-05T21:15:18.537Z,100.00
2022-10-05T21:17:51.025Z,100.00
2022-10-05T21:20:21.085Z,100.00
2022-10-05T21:22:50.716Z,100.00
2022-10-05T21:25:18.997Z,100.00
2022-10-05T21:27:49.553Z,100.00
2022-10-05T21:30:17.697Z,100.00
2022-10-05T21:32:49.986Z,100.00
2022-10-05T21:35:18.946Z,100.00
2022-10-05T21:37:47.572Z,100.00
2022-10-05T21:40:18.962Z,100.00
2022-10-05T21:42:50.171Z,100.00
2022-10-05T21:45:20.554Z,100.00
2022-10-05T21:47:51.179Z,100.00
2022-10-05T21:50:21.664Z,100.00
2022-10-05T21:52:52.292Z,100.00
2022-10-05T21:55:22.332Z,100.00
2022-10-05T21:57:50.534Z,100.00
2022-10-05T22:00:19.634Z,100.00
2022-10-05T22:02:47.810Z,100.00
2022-10-05T22:05:17.718Z,100.00
2022-10-05T22:07:46.657Z,100.00
2022-10-05T22:10:18.199Z,100.00
2022-10-05T22:12:48.308Z,100.00
2022-10-05T22:15:20.330Z,100.00
2022-10-05T22:17:50.028Z,100.00
2022-10-05T22:20:20.629Z,100.00
2022-10-05T22:22:49.698Z,100.00
2022-10-05T22:25:17.547Z,100.00
2022-10-05T22:27:49.994Z,100.00
2022-10-05T22:30:18.558Z,100.00
2022-10-05T22:32:48.614Z,100.00
2022-10-05T22:35:16.520Z,100.00
2022-10-05T22:37:45.806Z,100.00
2022-10-05T22:40:14.976Z,100.00
2022-10-05T22:42:43.889Z,100.00
2022-10-05T22:45:11.475Z,100.00
2022-10-05T22:47:43.262Z,100.00
2022-10-05T22:50:11.536Z,100.00
2022-10-05T22:52:42.827Z,100.00
2022-10-05T22:55:11.535Z,100.00
2022-10-05T22:57:43.943Z,100.00
2022-10-05T23:00:13.155Z,100.00
2022-10-05T23:02:43.733Z,100.00
2022-10-05T23:05:19.503Z,100.00
2022-10-05T23:07:49.476Z,100.00
2022-10-05T23:10:18.603Z,100.00
2022-10-05T23:13:00.698Z,100.00
2022-10-05T23:15:34.813Z,100.00
2022-10-05T23:18:02.703Z,100.00
2022-10-05T23:20:32.438Z,100.00
2022-10-05T23:23:00.616Z,100.00
2022-10-05T23:32:50.714Z,100.00
2022-10-05T23:35:19.729Z,100.00
2022-10-05T23:37:48.032Z,100.00
2022-10-05T23:40:18.622Z,100.00
2022-10-05T23:42:47.283Z,100.00
2022-10-05T23:45:18.761Z,100.00
2022-10-05T23:47:47.809Z,100.00
2022-10-05T23:50:17.753Z,100.00
2022-10-05T23:52:45.623Z,100.00
2022-10-05T23:55:17.056Z,100.00
2022-10-05T23:57:45.679Z,100.00
